createdAt,value
2022-08-05T00:00:21.852Z,81.34
2022-08-05T00:03:27.146Z,81.41
2022-08-05T00:06:35.797Z,81.50
2022-08-05T00:09:41.996Z,81.58
2022-08-05T00:12:56.366Z,81.57
2022-08-05T00:15:55.879Z,81.61
2022-08-05T00:18:48.092Z,81.71
2022-08-05T00:21:54.912Z,81.80
2022-08-05T00:25:01.189Z,81.79
2022-08-05T00:28:07.922Z,81.88
2022-08-05T00:31:15.528Z,81.97
2022-08-05T00:34:53.951Z,81.90
2022-08-05T00:37:50.926Z,81.88
2022-08-05T00:40:36.182Z,81.83
2022-08-05T00:43:50.072Z,81.90
2022-08-05T00:46:54.311Z,81.89
2022-08-05T00:49:58.972Z,81.90
2022-08-05T00:52:58.790Z,82.07
2022-08-05T00:55:58.899Z,82.22
2022-08-05T00:59:06.918Z,82.29
2022-08-05T01:02:15.020Z,82.33
2022-08-05T01:05:23.227Z,82.34
2022-08-05T01:08:41.291Z,82.26
2022-08-05T01:11:47.320Z,82.26
2022-08-05T01:15:05.420Z,82.24
2022-08-05T01:18:15.427Z,82.11
2022-08-05T01:21:42.706Z,82.09
2022-08-05T01:25:21.413Z,82.19
2022-08-05T01:28:57.477Z,82.13
2022-08-05T01:32:12.379Z,82.25
2022-08-05T01:35:50.635Z,82.45
2022-08-05T01:38:30.161Z,82.36
2022-08-05T01:41:37.679Z,82.30
2022-08-05T01:44:45.781Z,82.44
2022-08-05T01:47:54.440Z,82.49
2022-08-05T01:51:08.703Z,82.49
2022-08-05T01:54:09.852Z,82.63
2022-08-05T01:58:10.898Z,82.69
2022-08-05T02:00:29.894Z,82.74
2022-08-05T02:03:49.106Z,82.84
2022-08-05T02:06:56.400Z,82.79
2022-08-05T02:10:03.608Z,82.73
2022-08-05T02:13:16.011Z,82.72
2022-08-05T02:16:41.496Z,82.71
2022-08-05T02:19:52.277Z,82.77
2022-08-05T02:23:00.747Z,82.86
2022-08-05T02:26:05.980Z,83.01
2022-08-05T02:29:17.311Z,83.09
2022-08-05T02:32:24.037Z,83.03
2022-08-05T02:35:37.560Z,83.09
2022-08-05T02:38:44.122Z,83.21
2022-08-05T02:42:01.307Z,83.22
2022-08-05T02:44:58.588Z,83.29
2022-08-05T02:48:12.577Z,83.34
2022-08-05T02:51:15.791Z,83.33
2022-08-05T02:54:35.814Z,83.35
2022-08-05T02:58:09.653Z,83.35
2022-08-05T03:00:38.636Z,83.37
2022-08-05T03:04:02.189Z,83.38
2022-08-05T03:06:59.534Z,83.38
2022-08-05T03:10:00.588Z,83.42
2022-08-05T03:13:09.618Z,83.42
2022-08-05T03:16:16.741Z,83.44
2022-08-05T03:19:34.054Z,83.48
2022-08-05T03:22:32.925Z,83.52
2022-08-05T03:26:03.505Z,83.52
2022-08-05T03:28:47.806Z,83.51
2022-08-05T03:31:57.173Z,83.54
2022-08-05T03:35:00.761Z,83.58
2022-08-05T03:38:06.194Z,83.62
2022-08-05T03:41:11.673Z,83.64
2022-08-05T03:44:20.219Z,83.68
2022-08-05T03:47:20.290Z,83.78
2022-08-05T03:50:07.213Z,83.92
2022-08-05T03:55:52.265Z,83.99
2022-08-05T03:56:33.122Z,83.97
2022-08-05T03:59:54.827Z,84.06
2022-08-05T04:02:59.221Z,84.09
2022-08-05T04:06:08.790Z,84.13
2022-08-05T04:09:20.444Z,84.21
2022-08-05T04:12:24.958Z,84.26
2022-08-05T04:15:33.347Z,84.27
2022-08-05T04:18:39.168Z,84.33
2022-08-05T04:22:09.546Z,84.29
2022-08-05T04:25:00.892Z,84.37
2022-08-05T04:28:12.823Z,84.39
2022-08-05T04:31:16.412Z,84.59
2022-08-05T04:34:33.900Z,84.60
2022-08-05T04:38:02.616Z,84.55
2022-08-05T04:40:35.917Z,84.43
2022-08-05T04:43:48.033Z,84.35
2022-08-05T04:46:48.858Z,84.51
2022-08-05T04:50:02.733Z,84.51
2022-08-05T04:53:03.894Z,84.46
2022-08-05T04:56:33.769Z,84.50
2022-08-05T04:59:23.949Z,84.52
2022-08-05T05:02:36.947Z,84.37
2022-08-05T05:05:34.826Z,84.50
2022-08-05T05:08:42.970Z,84.58
2022-08-05T05:11:55.658Z,84.41
2022-08-05T05:14:57.206Z,84.28
2022-08-05T05:18:02.711Z,84.28
2022-08-05T05:21:08.812Z,84.12
2022-08-05T05:24:15.237Z,84.16
2022-08-05T05:27:24.449Z,84.08
2022-08-05T05:30:30.627Z,84.09
2022-08-05T05:33:17.364Z,84.10
2022-08-05T05:36:10.526Z,84.11
2022-08-05T05:39:00.387Z,84.25
2022-08-05T05:41:55.619Z,84.23
2022-08-05T05:45:09.782Z,84.23
2022-08-05T05:48:16.089Z,84.25
2022-08-05T05:51:22.798Z,84.29
2022-08-05T05:54:49.976Z,84.27
2022-08-05T05:57:53.599Z,83.98
2022-08-05T06:01:12.710Z,83.97
2022-08-05T06:04:11.341Z,84.18
2022-08-05T06:07:17.357Z,83.90
2022-08-05T06:10:29.372Z,83.70
2022-08-05T06:13:40.924Z,83.70
2022-08-05T06:16:44.214Z,83.59
2022-08-05T06:19:56.555Z,83.35
2022-08-05T06:22:59.225Z,83.36
2022-08-05T06:26:13.487Z,83.19
2022-08-05T06:29:43.048Z,83.18
2022-08-05T06:32:28.835Z,83.21
2022-08-05T06:36:07.830Z,83.02
2022-08-05T06:38:52.009Z,83.22
2022-08-05T06:42:48.701Z,83.58
2022-08-05T06:46:13.039Z,83.68
2022-08-05T06:49:21.323Z,83.72
2022-08-05T06:52:36.989Z,83.61
2022-08-05T06:55:47.681Z,83.62
2022-08-05T06:58:58.717Z,83.81
2022-08-05T07:02:10.645Z,84.05
2022-08-05T07:05:43.061Z,84.07
2022-08-05T07:09:04.058Z,83.98
2022-08-05T07:12:12.633Z,83.83
2022-08-05T07:16:01.768Z,83.53
2022-08-05T07:18:48.066Z,83.24
2022-08-05T07:22:00.778Z,82.93
2022-08-05T07:25:21.891Z,83.09
2022-08-05T07:28:17.943Z,83.15
2022-08-05T07:31:41.123Z,83.31
2022-08-05T07:34:31.829Z,83.29
2022-08-05T07:37:39.534Z,83.26
2022-08-05T07:40:46.007Z,83.51
2022-08-05T07:43:53.010Z,83.62
2022-08-05T07:47:00.697Z,83.71
2022-08-05T07:50:07.786Z,83.57
2022-08-05T07:53:14.368Z,83.26
2022-08-05T07:57:00.162Z,83.17
2022-08-05T07:59:38.591Z,83.18
2022-08-05T08:03:13.359Z,83.39
2022-08-05T08:05:50.742Z,83.60
2022-08-05T08:08:56.628Z,83.59
2022-08-05T08:12:09.711Z,83.32
2022-08-05T08:15:15.925Z,83.48
2022-08-05T08:18:28.237Z,83.41
2022-08-05T08:21:36.822Z,83.59
2022-08-05T08:24:51.310Z,83.66
2022-08-05T08:27:58.628Z,83.87
2022-08-05T08:31:15.101Z,84.10
2022-08-05T08:34:30.775Z,83.97
2022-08-05T08:37:30.338Z,83.96
2022-08-05T08:40:37.993Z,84.17
2022-08-05T08:45:18.433Z,84.19
2022-08-05T08:46:56.276Z,84.12
2022-08-05T08:50:33.018Z,83.99
2022-08-05T08:53:23.426Z,84.09
2022-08-05T08:56:33.501Z,83.79
2022-08-05T09:00:06.652Z,83.99
2022-08-05T09:03:16.163Z,84.05
2022-08-05T09:06:28.038Z,83.95
2022-08-05T09:09:35.425Z,83.74
2022-08-05T09:12:42.191Z,83.22
2022-08-05T09:15:48.874Z,83.18
2022-08-05T09:18:56.021Z,83.26
2022-08-05T09:22:22.593Z,83.11
2022-08-05T09:25:24.069Z,82.42
2022-08-05T09:28:33.192Z,81.74
2022-08-05T09:32:41.969Z,81.72
2022-08-05T09:35:10.628Z,82.03
2022-08-05T09:38:29.741Z,81.90
2022-08-05T09:41:40.726Z,81.73
2022-08-05T09:46:04.865Z,81.74
2022-08-05T09:48:12.180Z,81.75
2022-08-05T09:51:23.007Z,81.51
2022-08-05T09:54:30.178Z,81.42
2022-08-05T09:57:54.351Z,81.36
2022-08-05T10:01:32.012Z,80.92
2022-08-05T10:04:35.070Z,80.85
2022-08-05T10:08:35.230Z,80.84
2022-08-05T10:11:15.130Z,81.12
2022-08-05T10:14:45.945Z,81.02
2022-08-05T10:17:56.783Z,81.16
2022-08-05T10:21:06.399Z,80.91
2022-08-05T10:24:15.116Z,80.65
2022-08-05T10:27:26.202Z,80.43
2022-08-05T10:31:20.605Z,80.12
2022-08-05T10:33:44.651Z,80.22
2022-08-05T10:36:55.820Z,79.84
2022-08-05T10:40:17.416Z,79.82
2022-08-05T10:43:11.179Z,79.20
2022-08-05T10:46:23.841Z,79.20
2022-08-05T10:49:32.890Z,79.23
2022-08-05T10:53:08.409Z,78.93
2022-08-05T10:56:26.343Z,78.94
2022-08-05T11:00:02.103Z,78.80
2022-08-05T11:02:50.514Z,78.25
2022-08-05T11:06:03.716Z,78.51
2022-08-05T11:09:45.316Z,78.39
2022-08-05T11:12:57.629Z,78.39
2022-08-05T11:16:09.592Z,78.30
2022-08-05T11:20:10.144Z,77.78
2022-08-05T11:23:06.003Z,78.05
2022-08-05T11:26:32.391Z,78.29
2022-08-05T11:29:54.932Z,77.69
2022-08-05T11:33:06.964Z,77.69
2022-08-05T11:36:34.492Z,77.95
2022-08-05T11:39:55.459Z,77.97
2022-08-05T11:43:03.275Z,77.81
2022-08-05T11:46:23.416Z,77.84
2022-08-05T11:49:28.311Z,76.96
2022-08-05T11:52:40.809Z,76.87
2022-08-05T11:55:50.042Z,77.17
2022-08-05T11:59:00.666Z,77.30
2022-08-05T12:02:30.015Z,76.99
2022-08-05T12:05:39.898Z,76.78
2022-08-05T12:08:49.713Z,76.64
2022-08-05T12:11:57.429Z,76.28
2022-08-05T12:15:04.036Z,75.73
2022-08-05T12:18:10.515Z,75.47
2022-08-05T12:21:31.855Z,75.60
2022-08-05T12:24:49.667Z,75.48
2022-08-05T12:27:57.576Z,75.29
2022-08-05T12:31:09.235Z,75.22
2022-08-05T12:34:23.565Z,75.25
2022-08-05T12:37:29.852Z,75.21
2022-08-05T12:40:44.117Z,75.16
2022-08-05T12:44:14.201Z,75.04
2022-08-05T12:47:22.091Z,74.70
2022-08-05T12:50:32.832Z,74.35
2022-08-05T12:53:43.556Z,74.11
2022-08-05T12:57:04.416Z,74.26
2022-08-05T13:02:01.240Z,74.08
2022-08-05T13:03:26.575Z,73.57
2022-08-05T13:06:36.181Z,73.57
2022-08-05T13:09:49.091Z,73.23
2022-08-05T13:12:58.787Z,73.43
2022-08-05T13:16:10.075Z,73.43
2022-08-05T13:19:22.388Z,73.09
2022-08-05T13:22:32.011Z,72.88
2022-08-05T13:25:52.133Z,72.70
2022-08-05T13:28:47.693Z,72.69
2022-08-05T13:32:04.961Z,72.65
2022-08-05T13:35:11.691Z,72.32
2022-08-05T13:38:30.911Z,72.32
2022-08-05T13:41:34.670Z,72.32
2022-08-05T13:44:45.903Z,72.18
2022-08-05T13:48:08.723Z,71.96
2022-08-05T13:51:02.815Z,71.51
2022-08-05T13:54:13.196Z,71.34
2022-08-05T13:57:21.469Z,71.15
2022-08-05T14:00:28.003Z,70.84
2022-08-05T14:03:36.354Z,71.00
2022-08-05T14:06:47.770Z,70.86
2022-08-05T14:09:55.840Z,70.63
2022-08-05T14:13:03.008Z,70.52
2022-08-05T14:16:11.459Z,70.01
2022-08-05T14:19:17.763Z,70.01
2022-08-05T14:22:24.507Z,69.90
2022-08-05T14:25:31.810Z,69.90
2022-08-05T14:28:37.847Z,69.86
2022-08-05T14:32:02.580Z,69.68
2022-08-05T14:34:56.823Z,69.62
2022-08-05T14:38:03.422Z,69.53
2022-08-05T14:41:10.924Z,69.45
2022-08-05T14:44:22.011Z,69.26
2022-08-05T14:48:03.237Z,69.17
2022-08-05T14:50:40.647Z,69.04
2022-08-05T14:54:26.637Z,68.43
2022-08-05T14:56:54.602Z,68.39
2022-08-05T15:00:00.195Z,68.39
2022-08-05T15:03:06.413Z,68.21
2022-08-05T15:06:15.791Z,67.63
2022-08-05T15:09:51.236Z,67.63
2022-08-05T15:12:41.039Z,67.83
2022-08-05T15:15:53.964Z,67.82
2022-08-05T15:18:51.768Z,67.80
2022-08-05T15:22:05.125Z,67.80
2022-08-05T15:25:11.631Z,67.71
2022-08-05T15:28:27.037Z,67.68
2022-08-05T15:31:34.913Z,66.56
2022-08-05T15:34:43.818Z,65.81
2022-08-05T15:38:31.934Z,65.72
2022-08-05T15:41:21.307Z,65.95
2022-08-05T15:44:08.161Z,66.03
2022-08-05T15:47:17.955Z,66.29
2022-08-05T15:50:25.212Z,66.56
2022-08-05T15:53:38.573Z,66.75
2022-08-05T15:56:41.812Z,66.65
2022-08-05T15:59:52.873Z,66.58
2022-08-05T16:02:57.088Z,66.58
2022-08-05T16:06:06.651Z,66.65
2022-08-05T16:09:15.762Z,66.76
2022-08-05T16:12:24.294Z,66.82
2022-08-05T16:15:32.662Z,67.02
2022-08-05T16:18:52.805Z,66.97
2022-08-05T16:21:58.592Z,67.13
2022-08-05T16:24:59.843Z,67.26
2022-08-05T16:28:10.299Z,67.17
2022-08-05T16:31:15.696Z,67.19
2022-08-05T16:34:27.714Z,67.19
2022-08-05T16:38:11.986Z,67.24
2022-08-05T16:40:48.075Z,67.08
2022-08-05T16:43:56.187Z,67.15
2022-08-05T16:47:02.200Z,67.27
2022-08-05T16:50:12.837Z,67.50
2022-08-05T16:54:02.252Z,67.58
2022-08-05T16:56:35.053Z,67.40
2022-08-05T17:00:04.401Z,67.24
2022-08-05T17:02:49.827Z,67.28
2022-08-05T17:05:59.697Z,67.35
2022-08-05T17:09:04.337Z,67.45
2022-08-05T17:12:09.946Z,67.45
2022-08-05T17:15:19.901Z,67.56
2022-08-05T17:18:27.094Z,67.69
2022-08-05T17:21:36.251Z,67.92
2022-08-05T17:24:45.416Z,68.26
2022-08-05T17:27:49.067Z,68.40
2022-08-05T17:30:56.759Z,68.51
2022-08-05T17:34:06.500Z,68.67
2022-08-05T17:37:35.945Z,68.80
2022-08-05T17:40:24.733Z,68.93
2022-08-05T17:43:46.788Z,68.95
2022-08-05T17:46:38.450Z,69.03
2022-08-05T17:49:56.768Z,69.13
2022-08-05T17:52:52.979Z,69.34
2022-08-05T17:55:59.112Z,69.46
2022-08-05T17:59:06.756Z,69.60
2022-08-05T18:02:14.069Z,69.74
2022-08-05T18:05:23.331Z,69.73
2022-08-05T18:08:29.226Z,69.80
2022-08-05T18:11:37.477Z,70.04
2022-08-05T18:14:43.135Z,70.27
2022-08-05T18:18:00.240Z,70.42
2022-08-05T18:21:01.784Z,70.46
2022-08-05T18:24:07.547Z,70.67
2022-08-05T18:27:18.850Z,70.87
2022-08-05T18:30:26.367Z,71.04
2022-08-05T18:33:46.852Z,71.17
2022-08-05T18:36:43.480Z,71.22
2022-08-05T18:41:53.784Z,71.32
2022-08-05T18:43:00.961Z,71.37
2022-08-05T18:46:07.382Z,71.54
2022-08-05T18:49:30.332Z,71.59
2022-08-05T18:52:50.830Z,71.69
2022-08-05T18:55:54.649Z,71.77
2022-08-05T18:59:01.007Z,71.86
2022-08-05T19:02:26.578Z,71.96
2022-08-05T19:06:05.575Z,71.95
2022-08-05T19:08:30.520Z,71.92
2022-08-05T19:12:00.739Z,71.92
2022-08-05T19:15:00.312Z,72.12
2022-08-05T19:18:08.441Z,72.19
2022-08-05T19:21:03.366Z,72.14
2022-08-05T19:24:12.896Z,72.16
2022-08-05T19:27:20.568Z,72.26
2022-08-05T19:30:29.273Z,72.31
2022-08-05T19:33:38.120Z,72.42
2022-08-05T19:36:45.607Z,72.57
2022-08-05T19:39:55.447Z,72.72
2022-08-05T19:43:05.270Z,72.67
2022-08-05T19:46:16.878Z,72.78
2022-08-05T19:49:21.526Z,72.91
2022-08-05T19:52:30.515Z,72.93
2022-08-05T19:56:14.384Z,73.09
2022-08-05T19:58:53.972Z,73.27
2022-08-05T20:01:52.844Z,73.38
2022-08-05T20:05:01.308Z,73.38
2022-08-05T20:08:09.978Z,73.34
2022-08-05T20:11:19.404Z,73.47
2022-08-05T20:14:27.017Z,73.60
2022-08-05T20:17:36.423Z,73.68
2022-08-05T20:20:42.304Z,73.82
2022-08-05T20:23:53.289Z,73.95
2022-08-05T20:26:59.228Z,73.94
2022-08-05T20:30:05.300Z,73.96
2022-08-05T20:33:12.809Z,73.96
2022-08-05T20:36:23.779Z,74.08
2022-08-05T20:39:35.536Z,74.28
2022-08-05T20:42:38.045Z,74.29
2022-08-05T20:45:56.387Z,74.27
2022-08-05T20:48:56.447Z,74.25
2022-08-05T20:52:03.081Z,74.29
2022-08-05T20:55:54.714Z,74.46
2022-08-05T20:58:20.845Z,74.50
2022-08-05T21:01:37.555Z,74.48
2022-08-05T21:04:35.022Z,74.57
2022-08-05T21:07:50.849Z,74.57
2022-08-05T21:10:52.072Z,74.58
2022-08-05T21:13:58.921Z,74.64
2022-08-05T21:17:06.335Z,74.84
2022-08-05T21:20:12.798Z,74.91
2022-08-05T21:23:20.101Z,74.93
2022-08-05T21:26:29.572Z,75.11
2022-08-05T21:29:40.735Z,75.20
2022-08-05T21:32:47.789Z,75.24
2022-08-05T21:35:58.185Z,75.35
2022-08-05T21:39:02.042Z,75.39
2022-08-05T21:42:30.613Z,75.47
2022-08-05T21:45:38.149Z,75.63
2022-08-05T21:48:27.077Z,75.67
2022-08-05T21:52:21.395Z,75.77
2022-08-05T21:54:44.764Z,75.91
2022-08-05T21:57:51.642Z,75.99
2022-08-05T22:00:59.062Z,76.09
2022-08-05T22:04:05.604Z,76.16
2022-08-05T22:07:13.549Z,76.21
2022-08-05T22:10:26.517Z,76.37
2022-08-05T22:14:19.920Z,76.46
2022-08-05T22:16:41.928Z,76.52
2022-08-05T22:19:57.246Z,76.62
2022-08-05T22:22:14.637Z,76.65
2022-08-05T22:25:27.473Z,76.65
2022-08-05T22:28:14.482Z,76.68
2022-08-05T22:31:09.159Z,76.75
2022-08-05T22:34:25.594Z,76.67
2022-08-05T22:37:23.259Z,76.68
2022-08-05T22:40:31.338Z,76.75
2022-08-05T22:43:38.173Z,76.82
2022-08-05T22:46:45.240Z,76.84
2022-08-05T22:50:20.636Z,77.02
2022-08-05T22:53:00.506Z,77.15
2022-08-05T22:56:09.897Z,77.17
2022-08-05T22:59:45.331Z,77.19
2022-08-05T23:02:29.732Z,77.21
2022-08-05T23:05:30.388Z,77.23
2022-08-05T23:08:38.285Z,77.31
2022-08-05T23:11:46.650Z,77.43
2022-08-05T23:14:54.617Z,77.53
2022-08-05T23:18:03.200Z,77.59
2022-08-05T23:21:10.422Z,77.63
2022-08-05T23:24:16.899Z,77.74
2022-08-05T23:27:24.279Z,77.85
2022-08-05T23:30:27.076Z,77.79
2022-08-05T23:34:03.072Z,77.79
2022-08-05T23:36:40.325Z,77.81
2022-08-05T23:39:54.177Z,77.86
2022-08-05T23:42:47.358Z,77.92
2022-08-05T23:45:53.273Z,78.01
2022-08-05T23:49:02.111Z,78.09
2022-08-05T23:52:27.539Z,78.16
2022-08-05T23:55:33.880Z,78.25
2022-08-05T23:58:39.937Z,78.35
